Millinocket, Maine
Current Conditions -  °F | °C
As of 12:53 AM on Monday 20 Oct 2014 (Local Time) from KMLT Reporting Station
Overcast Overcast  
Wind Chill: 34°   Ceiling: 3200
Heat Index: 40°   Visibility: 10mi
Dew Point: 34°   Wind: 8mph
Humidity: 79%   Direction: 300°WNW
Pressure: 29.79"   Gusts: NA
Location:  45.66°N, 68.71°W
Report Text: KMLT 200453Z AUTO 30007KT 10SM BKN032 OVC042 04/01 A2979 RMK AO2 SLP095 T00440011 401220044
Loading
Personal Weather Stations






























Interactive Weather Map New forecast layout! Learn more

10-Day Weather Forecast

Advertisements
Track Severe Weather on mobile